aviador You're here:

KGXY Decoded Metar

GREELEY/WELD in CO, USA
Report Time2017-05-26 12:56:00
UTC Time2017-05-26 13:07:34
Flight Rules vfr VFR
Wind320° at 04 kt
W.Decomp.*RWY 34: 3.4 kt HW 2.1 kt LCW
RWY 27: 3.1 kt HW 2.5 kt RCW
W.Rank320° ranks 1
Current wind is below 320° avg. (8.3)
Visibility9999 m
Phenomena:N/A
Clouds:N/A
Expected CloudBase > 1,600 ft AGL from Temp-Dew spread
CeilingNone
Temp08°C (ISA +2)
Dew Point04°C (76% RH)
AAT5.2°C
QNH1016 hPa
Density Alt4,948 ft
Elevation4,659 ft
Report Wrong Elevation
Raw Report
METAR KGXY 261256Z AUTO 32004KT 10SM CLR 08/04 A3000 RMK AO2 SLP154
T00830044=

Extra information for KGXY:More info

Metar Taf Metar & Taf Last 4 Metars F.Rules Stats Wind Profile Meteogram Temp Stats Airport Information Weather charts Add Link Nearby VenuesMetar ALERT Operation Metar Decoded Social comments

AIRNAV info for KGXY